KSLE/SLE METAR and TAF weather

Enter ICAO airport designator
Station Type Date Time Source
KSLE METAR 2021/05/13 05:56 UTC NOAA

KSLE 130556Z AUTO 33005KT 10SM CLR 16/08 A3011 RMK AO2 SLP195 T01560078 10272 20156 51020


Station Type Date Time Source
KSLE Decoded METAR 2021/05/13 05:56 UTC NOAA

SALEM MCNARY FIELD, OR, United States (KSLE) 44-54N 123-00W 59M
May 13, 2021 - 01:56 AM EDT / 2021.05.13 0556 UTC
Wind: from the NNW (330 degrees) at 6 MPH (5 KT):0
Visibility: 10 mile(s):0
Sky conditions: clear
Temperature: 60.1 F (15.6 C)
Dew Point: 46.0 F (7.8 C)
Relative Humidity: 59%
Pressure (altimeter): 30.11 in. Hg (1019 hPa)
Pressure tendency: 0.06 inches (2.0 hPa) higher than three hours ago
ob: KSLE 130556Z AUTO 33005KT 10SM CLR 16/08 A3011 RMK AO2 SLP195 T01560078 10272 20156 51020
cycle: 6

Station Type Date Time Source
KSLE TAF 2021/05/13 06:22 UTC NOAA

TAF KSLE 130520Z 1306/1406 VRB04KT P6SM SKC
FM131800 36006KT P6SM SCT250
FM140000 30008KT P6SM SCT250

Example: see airport list